sensor_id;sensor_type;location;lat;lon;timestamp;P1;durP1;ratioP1;P2;durP2;ratioP2
9559;SDS011;4818;50.860;4.648;2023-12-28T00:01:33;2.33;;;0.60;;
9559;SDS011;4818;50.860;4.648;2023-12-28T00:03:59;2.20;;;0.75;;
9559;SDS011;4818;50.860;4.648;2023-12-28T00:06:26;2.42;;;1.02;;
9559;SDS011;4818;50.860;4.648;2023-12-28T00:08:52;4.35;;;0.80;;
9559;SDS011;4818;50.860;4.648;2023-12-28T00:11:18;1.80;;;0.55;;
9559;SDS011;4818;50.860;4.648;2023-12-28T00:13:45;6.05;;;1.20;;
9559;SDS011;4818;50.860;4.648;2023-12-28T00:16:13;1.67;;;0.68;;
9559;SDS011;4818;50.860;4.648;2023-12-28T00:18:39;1.52;;;0.40;;
9559;SDS011;4818;50.860;4.648;2023-12-28T00:21:05;2.50;;;0.80;;
9559;SDS011;4818;50.860;4.648;2023-12-28T00:23:32;2.28;;;0.57;;
9559;SDS011;4818;50.860;4.648;2023-12-28T00:26:03;2.05;;;0.73;;
9559;SDS011;4818;50.860;4.648;2023-12-28T00:28:36;4.75;;;0.70;;
9559;SDS011;4818;50.860;4.648;2023-12-28T00:31:02;1.27;;;0.52;;
9559;SDS011;4818;50.860;4.648;2023-12-28T00:33:28;2.45;;;0.70;;
9559;SDS011;4818;50.860;4.648;2023-12-28T00:35:54;2.83;;;0.80;;
9559;SDS011;4818;50.860;4.648;2023-12-28T00:38:20;2.72;;;0.82;;
9559;SDS011;4818;50.860;4.648;2023-12-28T00:40:47;1.63;;;0.65;;
9559;SDS011;4818;50.860;4.648;2023-12-28T00:43:13;3.13;;;0.77;;
9559;SDS011;4818;50.860;4.648;2023-12-28T00:45:39;2.10;;;0.77;;
9559;SDS011;4818;50.860;4.648;2023-12-28T00:48:05;2.67;;;0.57;;
9559;SDS011;4818;50.860;4.648;2023-12-28T00:50:32;4.55;;;1.30;;
9559;SDS011;4818;50.860;4.648;2023-12-28T00:52:58;2.10;;;0.88;;
9559;SDS011;4818;50.860;4.648;2023-12-28T00:55:24;2.58;;;0.77;;
9559;SDS011;4818;50.860;4.648;2023-12-28T00:57:50;3.08;;;0.98;;
9559;SDS011;4818;50.860;4.648;2023-12-28T01:00:17;1.60;;;0.55;;
9559;SDS011;4818;50.860;4.648;2023-12-28T01:02:43;2.58;;;0.60;;
9559;SDS011;4818;50.860;4.648;2023-12-28T01:05:12;2.80;;;0.65;;
9559;SDS011;4818;50.860;4.648;2023-12-28T01:07:38;7.60;;;0.90;;
9559;SDS011;4818;50.860;4.648;2023-12-28T01:10:05;4.15;;;0.80;;
9559;SDS011;4818;50.860;4.648;2023-12-28T01:12:31;4.05;;;0.82;;
9559;SDS011;4818;50.860;4.648;2023-12-28T01:14:57;7.28;;;0.63;;
9559;SDS011;4818;50.860;4.648;2023-12-28T01:17:24;5.20;;;1.23;;
9559;SDS011;4818;50.860;4.648;2023-12-28T01:19:50;5.35;;;1.00;;
9559;SDS011;4818;50.860;4.648;2023-12-28T01:22:16;3.70;;;0.60;;
9559;SDS011;4818;50.860;4.648;2023-12-28T01:24:45;2.53;;;0.90;;
9559;SDS011;4818;50.860;4.648;2023-12-28T01:27:12;4.13;;;0.80;;
9559;SDS011;4818;50.860;4.648;2023-12-28T01:29:38;5.82;;;1.23;;
9559;SDS011;4818;50.860;4.648;2023-12-28T01:32:04;5.18;;;0.77;;
9559;SDS011;4818;50.860;4.648;2023-12-28T01:34:31;3.28;;;0.90;;
9559;SDS011;4818;50.860;4.648;2023-12-28T01:36:57;2.55;;;0.57;;
9559;SDS011;4818;50.860;4.648;2023-12-28T01:39:24;2.20;;;0.60;;
9559;SDS011;4818;50.860;4.648;2023-12-28T01:41:50;3.85;;;0.60;;
9559;SDS011;4818;50.860;4.648;2023-12-28T01:44:16;1.92;;;0.90;;
9559;SDS011;4818;50.860;4.648;2023-12-28T01:46:43;5.13;;;1.05;;
9559;SDS011;4818;50.860;4.648;2023-12-28T01:49:10;3.97;;;0.88;;
9559;SDS011;4818;50.860;4.648;2023-12-28T01:51:36;7.88;;;1.40;;
9559;SDS011;4818;50.860;4.648;2023-12-28T01:54:04;3.70;;;0.80;;
9559;SDS011;4818;50.860;4.648;2023-12-28T01:56:31;2.80;;;0.93;;
9559;SDS011;4818;50.860;4.648;2023-12-28T01:58:58;3.55;;;0.85;;
9559;SDS011;4818;50.860;4.648;2023-12-28T02:01:25;4.93;;;0.88;;
9559;SDS011;4818;50.860;4.648;2023-12-28T02:03:51;4.60;;;0.90;;
9559;SDS011;4818;50.860;4.648;2023-12-28T02:06:17;4.28;;;1.05;;
9559;SDS011;4818;50.860;4.648;2023-12-28T02:08:44;3.05;;;0.60;;
9559;SDS011;4818;50.860;4.648;2023-12-28T02:11:10;3.88;;;0.82;;
9559;SDS011;4818;50.860;4.648;2023-12-28T02:13:38;6.18;;;0.73;;
9559;SDS011;4818;50.860;4.648;2023-12-28T02:16:17;4.57;;;0.98;;
9559;SDS011;4818;50.860;4.648;2023-12-28T02:18:47;5.43;;;0.65;;
9559;SDS011;4818;50.860;4.648;2023-12-28T02:21:16;5.05;;;0.88;;
9559;SDS011;4818;50.860;4.648;2023-12-28T02:23:46;3.08;;;0.80;;
9559;SDS011;4818;50.860;4.648;2023-12-28T02:26:12;5.10;;;0.90;;
9559;SDS011;4818;50.860;4.648;2023-12-28T02:28:38;4.95;;;0.70;;
9559;SDS011;4818;50.860;4.648;2023-12-28T02:31:05;4.00;;;0.80;;
9559;SDS011;4818;50.860;4.648;2023-12-28T02:33:38;1.90;;;0.75;;
9559;SDS011;4818;50.860;4.648;2023-12-28T02:36:07;2.40;;;0.95;;
9559;SDS011;4818;50.860;4.648;2023-12-28T02:38:36;1.75;;;0.85;;
9559;SDS011;4818;50.860;4.648;2023-12-28T02:41:02;2.40;;;0.85;;
9559;SDS011;4818;50.860;4.648;2023-12-28T02:43:29;5.10;;;0.80;;
9559;SDS011;4818;50.860;4.648;2023-12-28T02:45:55;1.80;;;0.60;;
9559;SDS011;4818;50.860;4.648;2023-12-28T02:48:22;5.82;;;0.68;;
9559;SDS011;4818;50.860;4.648;2023-12-28T02:50:48;4.35;;;0.65;;
9559;SDS011;4818;50.860;4.648;2023-12-28T02:53:14;2.15;;;0.70;;
9559;SDS011;4818;50.860;4.648;2023-12-28T02:55:40;11.80;;;0.98;;
9559;SDS011;4818;50.860;4.648;2023-12-28T02:58:07;3.00;;;0.60;;
9559;SDS011;4818;50.860;4.648;2023-12-28T03:00:33;3.08;;;0.50;;
9559;SDS011;4818;50.860;4.648;2023-12-28T03:02:59;3.25;;;0.77;;
9559;SDS011;4818;50.860;4.648;2023-12-28T03:05:25;3.00;;;0.95;;
9559;SDS011;4818;50.860;4.648;2023-12-28T03:07:51;5.20;;;0.55;;
9559;SDS011;4818;50.860;4.648;2023-12-28T03:10:18;6.03;;;0.63;;
9559;SDS011;4818;50.860;4.648;2023-12-28T03:12:44;5.00;;;0.73;;
9559;SDS011;4818;50.860;4.648;2023-12-28T03:15:10;11.52;;;1.33;;
9559;SDS011;4818;50.860;4.648;2023-12-28T03:17:37;1.45;;;0.40;;
9559;SDS011;4818;50.860;4.648;2023-12-28T03:20:03;8.05;;;0.73;;
9559;SDS011;4818;50.860;4.648;2023-12-28T03:22:29;8.63;;;0.82;;
9559;SDS011;4818;50.860;4.648;2023-12-28T03:24:55;5.05;;;0.40;;
9559;SDS011;4818;50.860;4.648;2023-12-28T03:27:22;2.33;;;0.45;;
9559;SDS011;4818;50.860;4.648;2023-12-28T03:29:48;4.97;;;1.02;;
9559;SDS011;4818;50.860;4.648;2023-12-28T03:32:14;3.60;;;0.65;;
9559;SDS011;4818;50.860;4.648;2023-12-28T03:34:41;4.68;;;0.73;;
9559;SDS011;4818;50.860;4.648;2023-12-28T03:37:07;2.83;;;0.65;;
9559;SDS011;4818;50.860;4.648;2023-12-28T03:39:36;2.90;;;0.50;;
9559;SDS011;4818;50.860;4.648;2023-12-28T03:42:03;9.40;;;0.50;;
9559;SDS011;4818;50.860;4.648;2023-12-28T03:44:29;1.60;;;0.57;;
9559;SDS011;4818;50.860;4.648;2023-12-28T03:46:55;8.23;;;0.70;;
9559;SDS011;4818;50.860;4.648;2023-12-28T03:49:21;9.10;;;0.60;;
9559;SDS011;4818;50.860;4.648;2023-12-28T03:51:49;5.95;;;0.90;;
9559;SDS011;4818;50.860;4.648;2023-12-28T03:54:18;3.45;;;0.65;;
9559;SDS011;4818;50.860;4.648;2023-12-28T03:56:48;8.18;;;0.82;;
9559;SDS011;4818;50.860;4.648;2023-12-28T03:59:14;5.00;;;0.57;;
9559;SDS011;4818;50.860;4.648;2023-12-28T04:01:40;8.02;;;0.40;;
9559;SDS011;4818;50.860;4.648;2023-12-28T04:04:06;6.30;;;0.52;;
9559;SDS011;4818;50.860;4.648;2023-12-28T04:06:33;6.50;;;0.60;;
9559;SDS011;4818;50.860;4.648;2023-12-28T04:08:59;8.93;;;0.65;;
9559;SDS011;4818;50.860;4.648;2023-12-28T04:11:25;9.15;;;0.68;;
9559;SDS011;4818;50.860;4.648;2023-12-28T04:13:51;5.75;;;0.65;;
9559;SDS011;4818;50.860;4.648;2023-12-28T04:16:17;5.90;;;1.00;;
9559;SDS011;4818;50.860;4.648;2023-12-28T04:18:44;6.80;;;0.50;;
9559;SDS011;4818;50.860;4.648;2023-12-28T04:21:10;3.72;;;0.68;;
9559;SDS011;4818;50.860;4.648;2023-12-28T04:23:37;5.70;;;0.50;;
9559;SDS011;4818;50.860;4.648;2023-12-28T04:26:03;4.85;;;0.40;;
9559;SDS011;4818;50.860;4.648;2023-12-28T04:28:30;8.43;;;0.63;;
9559;SDS011;4818;50.860;4.648;2023-12-28T04:30:56;5.78;;;0.70;;
9559;SDS011;4818;50.860;4.648;2023-12-28T04:33:22;3.00;;;0.52;;
9559;SDS011;4818;50.860;4.648;2023-12-28T04:35:48;5.32;;;0.70;;
9559;SDS011;4818;50.860;4.648;2023-12-28T04:38:14;4.78;;;0.47;;
9559;SDS011;4818;50.860;4.648;2023-12-28T04:40:40;6.20;;;0.50;;
9559;SDS011;4818;50.860;4.648;2023-12-28T04:43:07;8.82;;;0.82;;
9559;SDS011;4818;50.860;4.648;2023-12-28T04:45:33;6.80;;;0.50;;
9559;SDS011;4818;50.860;4.648;2023-12-28T04:47:59;8.43;;;0.63;;
9559;SDS011;4818;50.860;4.648;2023-12-28T04:50:25;5.38;;;0.50;;
9559;SDS011;4818;50.860;4.648;2023-12-28T04:52:51;8.98;;;0.75;;
9559;SDS011;4818;50.860;4.648;2023-12-28T04:55:17;7.95;;;1.35;;
9559;SDS011;4818;50.860;4.648;2023-12-28T04:57:43;3.35;;;0.40;;
9559;SDS011;4818;50.860;4.648;2023-12-28T05:00:09;8.75;;;0.52;;
9559;SDS011;4818;50.860;4.648;2023-12-28T05:02:36;6.88;;;0.80;;
9559;SDS011;4818;50.860;4.648;2023-12-28T05:05:02;10.20;;;0.88;;
9559;SDS011;4818;50.860;4.648;2023-12-28T05:07:28;8.80;;;0.70;;
9559;SDS011;4818;50.860;4.648;2023-12-28T05:09:54;11.35;;;0.60;;
9559;SDS011;4818;50.860;4.648;2023-12-28T05:12:20;7.03;;;0.60;;
9559;SDS011;4818;50.860;4.648;2023-12-28T05:14:46;9.73;;;1.10;;
9559;SDS011;4818;50.860;4.648;2023-12-28T05:17:12;12.80;;;0.80;;
9559;SDS011;4818;50.860;4.648;2023-12-28T05:19:38;5.75;;;0.65;;
9559;SDS011;4818;50.860;4.648;2023-12-28T05:22:04;5.75;;;0.80;;
9559;SDS011;4818;50.860;4.648;2023-12-28T05:24:33;7.22;;;0.68;;
9559;SDS011;4818;50.860;4.648;2023-12-28T05:26:59;8.30;;;1.15;;
9559;SDS011;4818;50.860;4.648;2023-12-28T05:29:25;9.27;;;1.27;;
9559;SDS011;4818;50.860;4.648;2023-12-28T05:31:51;13.05;;;0.60;;
9559;SDS011;4818;50.860;4.648;2023-12-28T05:34:17;6.57;;;0.50;;
9559;SDS011;4818;50.860;4.648;2023-12-28T05:36:43;14.00;;;0.80;;
9559;SDS011;4818;50.860;4.648;2023-12-28T05:39:10;10.25;;;0.80;;
9559;SDS011;4818;50.860;4.648;2023-12-28T05:41:38;10.07;;;1.13;;
9559;SDS011;4818;50.860;4.648;2023-12-28T05:44:05;13.27;;;0.77;;
9559;SDS011;4818;50.860;4.648;2023-12-28T05:46:31;6.32;;;0.60;;
9559;SDS011;4818;50.860;4.648;2023-12-28T05:48:57;7.80;;;0.65;;
9559;SDS011;4818;50.860;4.648;2023-12-28T05:51:23;6.88;;;1.13;;
9559;SDS011;4818;50.860;4.648;2023-12-28T05:53:49;7.90;;;0.85;;
9559;SDS011;4818;50.860;4.648;2023-12-28T05:56:16;7.78;;;0.73;;
9559;SDS011;4818;50.860;4.648;2023-12-28T05:58:42;8.70;;;0.60;;
9559;SDS011;4818;50.860;4.648;2023-12-28T06:01:08;10.20;;;1.05;;
9559;SDS011;4818;50.860;4.648;2023-12-28T06:03:34;11.73;;;0.75;;
9559;SDS011;4818;50.860;4.648;2023-12-28T06:06:00;9.30;;;0.95;;
9559;SDS011;4818;50.860;4.648;2023-12-28T06:08:26;7.97;;;0.60;;
9559;SDS011;4818;50.860;4.648;2023-12-28T06:10:53;9.20;;;0.90;;
9559;SDS011;4818;50.860;4.648;2023-12-28T06:13:19;10.88;;;1.13;;
9559;SDS011;4818;50.860;4.648;2023-12-28T06:15:45;15.32;;;1.25;;
9559;SDS011;4818;50.860;4.648;2023-12-28T06:18:11;7.72;;;0.60;;
9559;SDS011;4818;50.860;4.648;2023-12-28T06:20:37;11.88;;;1.08;;
9559;SDS011;4818;50.860;4.648;2023-12-28T06:23:04;12.13;;;0.65;;
9559;SDS011;4818;50.860;4.648;2023-12-28T06:25:30;5.82;;;1.13;;
9559;SDS011;4818;50.860;4.648;2023-12-28T06:27:56;10.75;;;1.63;;
9559;SDS011;4818;50.860;4.648;2023-12-28T06:30:22;12.05;;;1.40;;
9559;SDS011;4818;50.860;4.648;2023-12-28T06:32:48;8.43;;;0.75;;
9559;SDS011;4818;50.860;4.648;2023-12-28T06:35:14;11.25;;;0.68;;
9559;SDS011;4818;50.860;4.648;2023-12-28T06:37:41;11.90;;;1.23;;
9559;SDS011;4818;50.860;4.648;2023-12-28T06:40:08;9.85;;;0.90;;
9559;SDS011;4818;50.860;4.648;2023-12-28T06:42:34;17.02;;;1.23;;
9559;SDS011;4818;50.860;4.648;2023-12-28T06:45:00;7.43;;;1.20;;
9559;SDS011;4818;50.860;4.648;2023-12-28T06:47:27;9.38;;;1.30;;
9559;SDS011;4818;50.860;4.648;2023-12-28T06:49:53;11.35;;;1.50;;
9559;SDS011;4818;50.860;4.648;2023-12-28T06:52:19;6.72;;;1.02;;
9559;SDS011;4818;50.860;4.648;2023-12-28T06:54:45;10.60;;;1.50;;
9559;SDS011;4818;50.860;4.648;2023-12-28T06:57:11;11.05;;;1.50;;
9559;SDS011;4818;50.860;4.648;2023-12-28T06:59:37;10.25;;;0.80;;
9559;SDS011;4818;50.860;4.648;2023-12-28T07:02:03;15.75;;;1.15;;
9559;SDS011;4818;50.860;4.648;2023-12-28T07:04:29;12.60;;;1.27;;
9559;SDS011;4818;50.860;4.648;2023-12-28T07:06:58;15.02;;;1.05;;
9559;SDS011;4818;50.860;4.648;2023-12-28T07:09:24;13.40;;;1.42;;
9559;SDS011;4818;50.860;4.648;2023-12-28T07:11:50;13.48;;;1.85;;
9559;SDS011;4818;50.860;4.648;2023-12-28T07:14:16;12.15;;;1.15;;
9559;SDS011;4818;50.860;4.648;2023-12-28T07:16:42;11.15;;;1.25;;
9559;SDS011;4818;50.860;4.648;2023-12-28T07:19:08;11.00;;;0.88;;
9559;SDS011;4818;50.860;4.648;2023-12-28T07:21:34;14.57;;;0.73;;
9559;SDS011;4818;50.860;4.648;2023-12-28T07:24:00;14.23;;;1.52;;
9559;SDS011;4818;50.860;4.648;2023-12-28T07:26:26;7.70;;;1.00;;
9559;SDS011;4818;50.860;4.648;2023-12-28T07:28:53;9.98;;;0.93;;
9559;SDS011;4818;50.860;4.648;2023-12-28T07:31:26;10.20;;;0.47;;
9559;SDS011;4818;50.860;4.648;2023-12-28T07:33:54;14.63;;;1.40;;
9559;SDS011;4818;50.860;4.648;2023-12-28T07:36:20;12.90;;;0.98;;
9559;SDS011;4818;50.860;4.648;2023-12-28T07:38:46;11.85;;;1.00;;
9559;SDS011;4818;50.860;4.648;2023-12-28T07:41:12;15.88;;;1.00;;
9559;SDS011;4818;50.860;4.648;2023-12-28T07:43:38;11.82;;;1.33;;
9559;SDS011;4818;50.860;4.648;2023-12-28T07:46:05;6.13;;;0.80;;
9559;SDS011;4818;50.860;4.648;2023-12-28T07:48:31;11.43;;;0.90;;
9559;SDS011;4818;50.860;4.648;2023-12-28T07:50:57;16.40;;;0.77;;
9559;SDS011;4818;50.860;4.648;2023-12-28T07:53:23;15.23;;;1.30;;
9559;SDS011;4818;50.860;4.648;2023-12-28T07:55:50;10.77;;;0.73;;
9559;SDS011;4818;50.860;4.648;2023-12-28T07:58:16;10.32;;;1.05;;
9559;SDS011;4818;50.860;4.648;2023-12-28T08:00:42;7.88;;;0.82;;
9559;SDS011;4818;50.860;4.648;2023-12-28T08:03:08;11.02;;;0.80;;
9559;SDS011;4818;50.860;4.648;2023-12-28T08:05:34;12.48;;;0.85;;
9559;SDS011;4818;50.860;4.648;2023-12-28T08:08:00;8.00;;;0.77;;
9559;SDS011;4818;50.860;4.648;2023-12-28T08:10:26;10.05;;;0.80;;
9559;SDS011;4818;50.860;4.648;2023-12-28T08:12:55;9.07;;;0.80;;
9559;SDS011;4818;50.860;4.648;2023-12-28T08:15:21;8.48;;;1.00;;
9559;SDS011;4818;50.860;4.648;2023-12-28T08:17:47;11.63;;;1.02;;
9559;SDS011;4818;50.860;4.648;2023-12-28T08:20:13;11.57;;;0.85;;
9559;SDS011;4818;50.860;4.648;2023-12-28T08:22:39;19.05;;;1.08;;
9559;SDS011;4818;50.860;4.648;2023-12-28T08:25:05;12.50;;;0.95;;
9559;SDS011;4818;50.860;4.648;2023-12-28T08:27:32;11.43;;;0.88;;
9559;SDS011;4818;50.860;4.648;2023-12-28T08:29:58;10.98;;;0.80;;
9559;SDS011;4818;50.860;4.648;2023-12-28T08:32:24;8.93;;;0.95;;
9559;SDS011;4818;50.860;4.648;2023-12-28T08:34:50;9.30;;;1.05;;
9559;SDS011;4818;50.860;4.648;2023-12-28T08:37:16;11.55;;;1.52;;
9559;SDS011;4818;50.860;4.648;2023-12-28T08:39:42;10.95;;;1.25;;
9559;SDS011;4818;50.860;4.648;2023-12-28T08:42:08;9.85;;;0.80;;
9559;SDS011;4818;50.860;4.648;2023-12-28T08:44:34;8.25;;;1.00;;
9559;SDS011;4818;50.860;4.648;2023-12-28T08:47:01;9.27;;;1.45;;
9559;SDS011;4818;50.860;4.648;2023-12-28T08:49:28;7.72;;;1.85;;
9559;SDS011;4818;50.860;4.648;2023-12-28T08:51:54;10.93;;;0.70;;
9559;SDS011;4818;50.860;4.648;2023-12-28T08:54:21;10.10;;;1.13;;
9559;SDS011;4818;50.860;4.648;2023-12-28T08:56:47;7.43;;;0.55;;
9559;SDS011;4818;50.860;4.648;2023-12-28T08:59:13;9.43;;;1.23;;
9559;SDS011;4818;50.860;4.648;2023-12-28T09:01:39;13.30;;;1.00;;
9559;SDS011;4818;50.860;4.648;2023-12-28T09:04:05;14.85;;;1.27;;
9559;SDS011;4818;50.860;4.648;2023-12-28T09:06:32;7.32;;;1.15;;
9559;SDS011;4818;50.860;4.648;2023-12-28T09:08:58;13.10;;;1.45;;
9559;SDS011;4818;50.860;4.648;2023-12-28T09:11:24;12.60;;;0.60;;
9559;SDS011;4818;50.860;4.648;2023-12-28T09:13:51;16.98;;;1.05;;
9559;SDS011;4818;50.860;4.648;2023-12-28T09:16:17;9.50;;;0.70;;
9559;SDS011;4818;50.860;4.648;2023-12-28T09:18:44;11.60;;;1.05;;
9559;SDS011;4818;50.860;4.648;2023-12-28T09:21:10;5.75;;;0.82;;
9559;SDS011;4818;50.860;4.648;2023-12-28T09:23:36;9.52;;;1.42;;
9559;SDS011;4818;50.860;4.648;2023-12-28T09:26:03;11.73;;;0.82;;
9559;SDS011;4818;50.860;4.648;2023-12-28T09:28:30;12.13;;;1.08;;
9559;SDS011;4818;50.860;4.648;2023-12-28T09:30:56;8.90;;;1.25;;
9559;SDS011;4818;50.860;4.648;2023-12-28T09:33:22;10.88;;;0.90;;
9559;SDS011;4818;50.860;4.648;2023-12-28T09:35:48;15.63;;;1.38;;
9559;SDS011;4818;50.860;4.648;2023-12-28T09:38:14;20.17;;;2.40;;
9559;SDS011;4818;50.860;4.648;2023-12-28T09:40:41;8.43;;;1.20;;
9559;SDS011;4818;50.860;4.648;2023-12-28T09:43:09;13.38;;;0.75;;
9559;SDS011;4818;50.860;4.648;2023-12-28T09:48:03;13.60;;;1.30;;
9559;SDS011;4818;50.860;4.648;2023-12-28T09:50:31;7.05;;;0.82;;
9559;SDS011;4818;50.860;4.648;2023-12-28T09:52:58;11.10;;;1.00;;
9559;SDS011;4818;50.860;4.648;2023-12-28T09:55:24;9.05;;;1.05;;
9559;SDS011;4818;50.860;4.648;2023-12-28T09:57:53;7.00;;;0.77;;
9559;SDS011;4818;50.860;4.648;2023-12-28T10:00:20;11.88;;;0.90;;
9559;SDS011;4818;50.860;4.648;2023-12-28T10:02:47;13.85;;;0.93;;
9559;SDS011;4818;50.860;4.648;2023-12-28T10:05:16;13.50;;;1.02;;
9559;SDS011;4818;50.860;4.648;2023-12-28T10:07:42;8.50;;;1.30;;
9559;SDS011;4818;50.860;4.648;2023-12-28T10:10:09;18.58;;;1.25;;
9559;SDS011;4818;50.860;4.648;2023-12-28T10:12:35;8.98;;;0.95;;
9559;SDS011;4818;50.860;4.648;2023-12-28T10:15:01;10.38;;;0.95;;
9559;SDS011;4818;50.860;4.648;2023-12-28T10:17:28;11.20;;;1.13;;
9559;SDS011;4818;50.860;4.648;2023-12-28T10:19:54;13.02;;;1.10;;
9559;SDS011;4818;50.860;4.648;2023-12-28T10:22:31;10.10;;;0.88;;
9559;SDS011;4818;50.860;4.648;2023-12-28T10:24:58;12.35;;;1.65;;
9559;SDS011;4818;50.860;4.648;2023-12-28T10:27:25;12.00;;;1.58;;
9559;SDS011;4818;50.860;4.648;2023-12-28T10:29:53;16.77;;;1.15;;
9559;SDS011;4818;50.860;4.648;2023-12-28T10:32:20;11.05;;;1.73;;
9559;SDS011;4818;50.860;4.648;2023-12-28T10:34:48;8.32;;;1.48;;
9559;SDS011;4818;50.860;4.648;2023-12-28T10:37:14;16.67;;;2.08;;
9559;SDS011;4818;50.860;4.648;2023-12-28T10:39:41;9.63;;;0.88;;
9559;SDS011;4818;50.860;4.648;2023-12-28T10:44:37;6.90;;;0.85;;
9559;SDS011;4818;50.860;4.648;2023-12-28T10:47:05;11.13;;;1.27;;
9559;SDS011;4818;50.860;4.648;2023-12-28T10:49:33;12.60;;;0.90;;
9559;SDS011;4818;50.860;4.648;2023-12-28T10:52:01;16.83;;;1.67;;
9559;SDS011;4818;50.860;4.648;2023-12-28T10:57:33;11.48;;;1.45;;
9559;SDS011;4818;50.860;4.648;2023-12-28T11:00:02;12.75;;;1.17;;
9559;SDS011;4818;50.860;4.648;2023-12-28T11:02:35;10.38;;;1.23;;
9559;SDS011;4818;50.860;4.648;2023-12-28T11:05:04;14.18;;;1.52;;
9559;SDS011;4818;50.860;4.648;2023-12-28T11:07:31;14.18;;;0.73;;
9559;SDS011;4818;50.860;4.648;2023-12-28T11:10:00;13.32;;;1.92;;
9559;SDS011;4818;50.860;4.648;2023-12-28T11:12:26;14.48;;;1.95;;
9559;SDS011;4818;50.860;4.648;2023-12-28T11:14:53;10.30;;;1.10;;
9559;SDS011;4818;50.860;4.648;2023-12-28T11:17:20;13.02;;;0.95;;
9559;SDS011;4818;50.860;4.648;2023-12-28T11:19:46;15.60;;;1.08;;
9559;SDS011;4818;50.860;4.648;2023-12-28T11:22:14;11.25;;;1.58;;
9559;SDS011;4818;50.860;4.648;2023-12-28T11:24:40;15.27;;;1.10;;
9559;SDS011;4818;50.860;4.648;2023-12-28T11:27:07;15.13;;;1.65;;
9559;SDS011;4818;50.860;4.648;2023-12-28T11:29:34;15.95;;;1.67;;
9559;SDS011;4818;50.860;4.648;2023-12-28T11:32:00;17.90;;;2.10;;
9559;SDS011;4818;50.860;4.648;2023-12-28T11:34:29;8.88;;;0.77;;
9559;SDS011;4818;50.860;4.648;2023-12-28T11:36:56;15.23;;;1.17;;
9559;SDS011;4818;50.860;4.648;2023-12-28T11:41:52;16.27;;;1.17;;
9559;SDS011;4818;50.860;4.648;2023-12-28T11:44:26;19.52;;;2.05;;
9559;SDS011;4818;50.860;4.648;2023-12-28T11:46:52;18.13;;;1.60;;
9559;SDS011;4818;50.860;4.648;2023-12-28T11:49:24;15.93;;;0.90;;
9559;SDS011;4818;50.860;4.648;2023-12-28T11:51:54;14.48;;;1.67;;
9559;SDS011;4818;50.860;4.648;2023-12-28T11:54:20;12.63;;;1.15;;
9559;SDS011;4818;50.860;4.648;2023-12-28T11:56:46;7.78;;;1.10;;
9559;SDS011;4818;50.860;4.648;2023-12-28T11:59:12;9.18;;;0.90;;
9559;SDS011;4818;50.860;4.648;2023-12-28T12:01:38;16.63;;;1.40;;
9559;SDS011;4818;50.860;4.648;2023-12-28T12:04:05;15.55;;;1.25;;
9559;SDS011;4818;50.860;4.648;2023-12-28T12:06:32;13.73;;;1.33;;
9559;SDS011;4818;50.860;4.648;2023-12-28T12:08:58;10.57;;;1.52;;
9559;SDS011;4818;50.860;4.648;2023-12-28T12:11:24;20.45;;;1.63;;
9559;SDS011;4818;50.860;4.648;2023-12-28T12:13:51;10.68;;;1.33;;
9559;SDS011;4818;50.860;4.648;2023-12-28T12:16:17;12.15;;;1.38;;
9559;SDS011;4818;50.860;4.648;2023-12-28T12:18:43;15.55;;;1.35;;
9559;SDS011;4818;50.860;4.648;2023-12-28T12:21:10;9.52;;;1.17;;
9559;SDS011;4818;50.860;4.648;2023-12-28T12:23:37;13.57;;;1.40;;
9559;SDS011;4818;50.860;4.648;2023-12-28T12:26:06;10.05;;;0.70;;
9559;SDS011;4818;50.860;4.648;2023-12-28T12:28:32;7.72;;;0.60;;
9559;SDS011;4818;50.860;4.648;2023-12-28T12:30:58;11.80;;;0.73;;
9559;SDS011;4818;50.860;4.648;2023-12-28T12:33:29;16.42;;;1.42;;
9559;SDS011;4818;50.860;4.648;2023-12-28T12:35:56;14.43;;;1.88;;
9559;SDS011;4818;50.860;4.648;2023-12-28T12:38:23;23.35;;;1.65;;
9559;SDS011;4818;50.860;4.648;2023-12-28T12:40:52;9.57;;;0.80;;
9559;SDS011;4818;50.860;4.648;2023-12-28T12:43:18;12.43;;;1.42;;
9559;SDS011;4818;50.860;4.648;2023-12-28T12:45:44;10.95;;;1.67;;
9559;SDS011;4818;50.860;4.648;2023-12-28T12:48:11;16.77;;;1.05;;
9559;SDS011;4818;50.860;4.648;2023-12-28T12:50:37;7.97;;;1.00;;
9559;SDS011;4818;50.860;4.648;2023-12-28T12:53:06;12.98;;;1.38;;
9559;SDS011;4818;50.860;4.648;2023-12-28T12:55:32;9.07;;;0.73;;
9559;SDS011;4818;50.860;4.648;2023-12-28T12:57:58;9.85;;;1.52;;
9559;SDS011;4818;50.860;4.648;2023-12-28T13:00:25;14.32;;;1.63;;
9559;SDS011;4818;50.860;4.648;2023-12-28T13:02:51;12.80;;;0.90;;
9559;SDS011;4818;50.860;4.648;2023-12-28T13:05:18;12.38;;;0.77;;
9559;SDS011;4818;50.860;4.648;2023-12-28T13:07:44;11.65;;;1.13;;
9559;SDS011;4818;50.860;4.648;2023-12-28T13:10:10;12.20;;;0.77;;
9559;SDS011;4818;50.860;4.648;2023-12-28T13:12:36;10.63;;;0.73;;
9559;SDS011;4818;50.860;4.648;2023-12-28T13:15:03;7.35;;;0.77;;
9559;SDS011;4818;50.860;4.648;2023-12-28T13:17:31;11.18;;;1.55;;
9559;SDS011;4818;50.860;4.648;2023-12-28T13:19:57;13.32;;;1.13;;
9559;SDS011;4818;50.860;4.648;2023-12-28T13:22:23;15.15;;;0.60;;
9559;SDS011;4818;50.860;4.648;2023-12-28T13:24:49;12.75;;;1.00;;
9559;SDS011;4818;50.860;4.648;2023-12-28T13:27:15;13.13;;;1.20;;
9559;SDS011;4818;50.860;4.648;2023-12-28T13:29:41;9.38;;;1.70;;
9559;SDS011;4818;50.860;4.648;2023-12-28T13:32:08;9.25;;;1.23;;
9559;SDS011;4818;50.860;4.648;2023-12-28T13:34:34;14.30;;;0.98;;
9559;SDS011;4818;50.860;4.648;2023-12-28T13:37:00;14.45;;;1.30;;
9559;SDS011;4818;50.860;4.648;2023-12-28T13:39:28;10.27;;;0.80;;
9559;SDS011;4818;50.860;4.648;2023-12-28T13:41:54;19.17;;;1.50;;
9559;SDS011;4818;50.860;4.648;2023-12-28T13:44:20;10.23;;;1.05;;
9559;SDS011;4818;50.860;4.648;2023-12-28T13:46:46;15.57;;;1.15;;
9559;SDS011;4818;50.860;4.648;2023-12-28T13:49:14;11.05;;;1.38;;
9559;SDS011;4818;50.860;4.648;2023-12-28T13:51:40;10.75;;;0.93;;
9559;SDS011;4818;50.860;4.648;2023-12-28T13:54:06;10.50;;;0.55;;
9559;SDS011;4818;50.860;4.648;2023-12-28T13:56:32;12.70;;;1.38;;
9559;SDS011;4818;50.860;4.648;2023-12-28T13:58:58;9.23;;;0.50;;
9559;SDS011;4818;50.860;4.648;2023-12-28T14:01:24;12.05;;;0.85;;
9559;SDS011;4818;50.860;4.648;2023-12-28T14:03:51;13.20;;;1.20;;
9559;SDS011;4818;50.860;4.648;2023-12-28T14:06:17;7.85;;;1.13;;
9559;SDS011;4818;50.860;4.648;2023-12-28T14:08:44;17.20;;;1.60;;
9559;SDS011;4818;50.860;4.648;2023-12-28T14:11:10;7.78;;;0.50;;
9559;SDS011;4818;50.860;4.648;2023-12-28T14:13:36;12.00;;;1.10;;
9559;SDS011;4818;50.860;4.648;2023-12-28T14:16:03;13.18;;;1.25;;
9559;SDS011;4818;50.860;4.648;2023-12-28T14:18:29;12.98;;;1.50;;
9559;SDS011;4818;50.860;4.648;2023-12-28T14:20:55;10.18;;;1.08;;
9559;SDS011;4818;50.860;4.648;2023-12-28T14:23:21;10.82;;;0.85;;
9559;SDS011;4818;50.860;4.648;2023-12-28T14:25:48;5.03;;;0.80;;
9559;SDS011;4818;50.860;4.648;2023-12-28T14:28:18;9.98;;;1.27;;
9559;SDS011;4818;50.860;4.648;2023-12-28T14:30:44;12.35;;;1.10;;
9559;SDS011;4818;50.860;4.648;2023-12-28T14:33:11;5.45;;;0.52;;
9559;SDS011;4818;50.860;4.648;2023-12-28T14:35:37;8.80;;;0.75;;
9559;SDS011;4818;50.860;4.648;2023-12-28T14:38:04;9.13;;;0.63;;
9559;SDS011;4818;50.860;4.648;2023-12-28T14:40:32;16.63;;;1.55;;
9559;SDS011;4818;50.860;4.648;2023-12-28T14:42:59;8.27;;;0.68;;
9559;SDS011;4818;50.860;4.648;2023-12-28T14:45:25;5.65;;;0.50;;
9559;SDS011;4818;50.860;4.648;2023-12-28T14:47:51;10.07;;;0.93;;
9559;SDS011;4818;50.860;4.648;2023-12-28T14:50:17;14.35;;;1.40;;
9559;SDS011;4818;50.860;4.648;2023-12-28T14:52:43;12.23;;;0.60;;
9559;SDS011;4818;50.860;4.648;2023-12-28T14:55:09;16.92;;;1.23;;
9559;SDS011;4818;50.860;4.648;2023-12-28T14:57:36;10.52;;;1.05;;
9559;SDS011;4818;50.860;4.648;2023-12-28T15:00:03;10.68;;;0.75;;
9559;SDS011;4818;50.860;4.648;2023-12-28T15:02:30;13.30;;;0.70;;
9559;SDS011;4818;50.860;4.648;2023-12-28T15:04:56;18.63;;;1.10;;
9559;SDS011;4818;50.860;4.648;2023-12-28T15:07:24;9.50;;;1.42;;
9559;SDS011;4818;50.860;4.648;2023-12-28T15:09:51;11.25;;;0.80;;
9559;SDS011;4818;50.860;4.648;2023-12-28T15:12:22;8.80;;;0.63;;
9559;SDS011;4818;50.860;4.648;2023-12-28T15:14:48;9.40;;;1.00;;
9559;SDS011;4818;50.860;4.648;2023-12-28T15:17:15;10.30;;;0.93;;